createdAt,value
2022-08-17T00:00:34.246Z,77.02
2022-08-17T00:03:09.158Z,77.78
2022-08-17T00:05:43.820Z,77.49
2022-08-17T00:08:12.937Z,77.23
2022-08-17T00:10:41.903Z,77.30
2022-08-17T00:13:12.285Z,78.87
2022-08-17T00:15:40.128Z,78.20
2022-08-17T00:19:01.091Z,77.59
2022-08-17T00:20:58.795Z,77.81
2022-08-17T00:23:26.860Z,77.60
2022-08-17T00:25:55.230Z,77.49
2022-08-17T00:28:23.359Z,77.86
2022-08-17T00:30:53.679Z,78.59
2022-08-17T00:33:25.557Z,78.79
2022-08-17T00:35:54.918Z,79.01
2022-08-17T00:38:25.647Z,79.28
2022-08-17T00:40:59.183Z,79.48
2022-08-17T00:43:31.885Z,80.09
2022-08-17T00:46:00.779Z,79.91
2022-08-17T00:48:30.767Z,80.25
2022-08-17T00:51:08.210Z,79.52
2022-08-17T00:53:40.267Z,80.11
2022-08-17T00:56:11.875Z,80.28
2022-08-17T00:58:39.961Z,80.59
2022-08-17T01:01:11.546Z,81.88
2022-08-17T01:03:40.448Z,80.27
2022-08-17T01:06:09.400Z,80.21
2022-08-17T01:08:40.572Z,79.84
2022-08-17T01:11:09.056Z,80.63
2022-08-17T01:13:42.000Z,80.23
2022-08-17T01:16:17.014Z,79.80
2022-08-17T01:18:47.005Z,79.64
2022-08-17T01:21:33.244Z,79.55
2022-08-17T01:24:03.149Z,79.12
2022-08-17T01:26:33.337Z,79.09
2022-08-17T01:29:02.690Z,79.21
2022-08-17T01:31:35.994Z,80.03
2022-08-17T01:34:08.709Z,80.44
2022-08-17T01:36:36.739Z,80.82
2022-08-17T01:39:07.655Z,80.99
2022-08-17T01:41:38.073Z,80.47
2022-08-17T01:44:08.466Z,80.13
2022-08-17T01:46:38.681Z,80.18
2022-08-17T01:49:08.346Z,80.71
2022-08-17T01:51:36.199Z,80.73
2022-08-17T01:54:09.911Z,80.94
2022-08-17T01:56:41.201Z,81.32
2022-08-17T01:59:09.322Z,81.22
2022-08-17T02:01:38.149Z,81.25
2022-08-17T02:04:08.436Z,81.62
2022-08-17T02:06:53.715Z,81.75
2022-08-17T02:09:25.713Z,82.30
2022-08-17T02:11:54.576Z,82.42
2022-08-17T02:14:22.769Z,82.70
2022-08-17T02:16:50.750Z,82.64
2022-08-17T02:19:19.103Z,82.37
2022-08-17T02:21:49.653Z,82.50
2022-08-17T02:25:00.619Z,81.76
2022-08-17T02:27:11.169Z,82.10
2022-08-17T02:29:39.420Z,81.99
2022-08-17T02:32:07.827Z,81.68
2022-08-17T02:34:35.825Z,81.98
2022-08-17T02:37:03.714Z,82.34
2022-08-17T02:39:31.794Z,82.86
2022-08-17T02:42:02.501Z,83.30
2022-08-17T02:44:39.149Z,83.73
2022-08-17T02:47:09.130Z,84.08
2022-08-17T02:49:37.735Z,83.77
2022-08-17T02:52:08.432Z,84.26
2022-08-17T02:54:40.659Z,83.84
2022-08-17T02:57:10.485Z,83.17
2022-08-17T02:59:39.967Z,82.77
2022-08-17T03:02:10.894Z,83.28
2022-08-17T03:04:39.239Z,84.35
2022-08-17T03:07:07.508Z,84.88
2022-08-17T03:09:35.692Z,84.20
2022-08-17T03:12:08.253Z,84.64
2022-08-17T03:14:41.472Z,84.32
2022-08-17T03:17:17.136Z,84.29
2022-08-17T03:19:45.439Z,84.39
2022-08-17T03:22:36.641Z,84.34
2022-08-17T03:25:01.346Z,83.71
2022-08-17T03:27:30.074Z,84.60
2022-08-17T03:29:59.541Z,85.31
2022-08-17T03:32:27.431Z,85.05
2022-08-17T03:34:59.338Z,84.95
2022-08-17T03:37:27.589Z,85.21
2022-08-17T03:39:55.757Z,85.18
2022-08-17T03:42:32.413Z,85.05
2022-08-17T03:45:03.257Z,85.49
2022-08-17T03:47:48.469Z,85.11
2022-08-17T03:50:32.338Z,85.11
2022-08-17T03:53:18.963Z,86.81
2022-08-17T03:56:04.271Z,87.99
2022-08-17T03:58:32.137Z,87.72
2022-08-17T04:01:02.609Z,87.60
2022-08-17T04:03:30.355Z,86.78
2022-08-17T04:05:58.159Z,85.02
2022-08-17T04:08:26.058Z,85.82
2022-08-17T04:10:53.906Z,86.78
2022-08-17T04:13:24.235Z,86.48
2022-08-17T04:15:53.333Z,85.78
2022-08-17T04:18:22.623Z,85.25
2022-08-17T04:20:50.567Z,85.62
2022-08-17T04:23:19.958Z,85.70
2022-08-17T04:25:50.013Z,85.26
2022-08-17T04:28:18.955Z,85.99
2022-08-17T04:30:48.829Z,86.48
2022-08-17T04:33:19.848Z,85.23
2022-08-17T04:35:51.097Z,86.82
2022-08-17T04:38:22.711Z,86.36
2022-08-17T04:41:08.678Z,85.31
2022-08-17T04:43:37.941Z,85.44
2022-08-17T04:46:08.369Z,86.23
2022-08-17T04:48:38.716Z,85.84
2022-08-17T04:51:10.742Z,85.37
2022-08-17T04:53:40.054Z,86.26
2022-08-17T04:56:11.589Z,86.02
2022-08-17T04:58:39.792Z,85.81
2022-08-17T05:01:08.198Z,85.37
2022-08-17T05:03:36.743Z,85.56
2022-08-17T05:06:05.246Z,86.29
2022-08-17T05:08:34.763Z,86.04
2022-08-17T05:11:03.116Z,85.07
2022-08-17T05:13:31.071Z,84.67
2022-08-17T05:16:04.197Z,84.23
2022-08-17T05:18:32.564Z,84.24
2022-08-17T05:21:01.339Z,86.13
2022-08-17T05:23:42.958Z,86.72
2022-08-17T05:26:25.819Z,84.64
2022-08-17T05:28:55.127Z,85.41
2022-08-17T05:31:25.794Z,85.09
2022-08-17T05:33:54.405Z,83.40
2022-08-17T05:36:41.883Z,83.19
2022-08-17T05:39:15.830Z,83.02
2022-08-17T05:41:48.630Z,83.29
2022-08-17T05:44:17.772Z,84.45
2022-08-17T05:46:50.541Z,83.96
2022-08-17T05:49:23.522Z,83.18
2022-08-17T05:52:14.584Z,84.57
2022-08-17T05:55:14.902Z,83.42
2022-08-17T05:57:56.041Z,82.99
2022-08-17T06:00:30.605Z,81.71
2022-08-17T06:03:26.280Z,81.69
2022-08-17T06:06:31.882Z,81.36
2022-08-17T06:09:14.185Z,80.67
2022-08-17T06:11:53.503Z,81.29
2022-08-17T06:14:35.005Z,81.24
2022-08-17T06:17:07.250Z,81.04
2022-08-17T06:19:41.733Z,81.03
2022-08-17T06:22:13.667Z,80.84
2022-08-17T06:24:47.705Z,81.48
2022-08-17T06:27:24.590Z,81.39
2022-08-17T06:29:59.121Z,80.86
2022-08-17T06:32:27.449Z,79.31
2022-08-17T06:34:55.532Z,78.97
2022-08-17T06:37:39.180Z,78.50
2022-08-17T06:40:22.976Z,78.10
2022-08-17T06:43:07.373Z,77.03
2022-08-17T06:45:43.266Z,77.33
2022-08-17T06:48:16.525Z,76.70
2022-08-17T06:50:50.462Z,75.65
2022-08-17T06:53:23.704Z,74.82
2022-08-17T06:55:58.999Z,75.48
2022-08-17T06:58:31.364Z,73.89
2022-08-17T07:01:07.292Z,73.83
2022-08-17T07:03:39.287Z,73.21
2022-08-17T07:06:12.417Z,73.40
2022-08-17T07:08:50.319Z,72.28
2022-08-17T07:11:22.003Z,71.88
2022-08-17T07:14:05.401Z,71.50
2022-08-17T07:16:41.095Z,70.36
2022-08-17T07:19:11.013Z,70.03
2022-08-17T07:21:50.148Z,70.03
2022-08-17T07:24:31.018Z,70.02
2022-08-17T07:27:12.167Z,68.65
2022-08-17T07:29:44.162Z,67.75
2022-08-17T07:32:17.913Z,67.19
2022-08-17T07:35:02.117Z,66.25
2022-08-17T07:37:34.533Z,65.44
2022-08-17T07:40:17.321Z,64.99
2022-08-17T07:43:02.596Z,61.79
2022-08-17T07:45:50.905Z,61.38
2022-08-17T07:48:27.064Z,60.00
2022-08-17T07:50:55.893Z,59.62
2022-08-17T07:53:26.935Z,59.11
2022-08-17T07:55:55.352Z,60.24
2022-08-17T07:58:26.045Z,59.35
2022-08-17T08:01:09.068Z,58.89
2022-08-17T08:03:44.279Z,58.47
2022-08-17T08:06:21.619Z,57.56
2022-08-17T08:08:53.326Z,57.82
2022-08-17T08:11:31.799Z,56.05
2022-08-17T08:14:28.691Z,55.36
2022-08-17T08:16:59.881Z,54.91
2022-08-17T08:19:31.017Z,54.25
2022-08-17T08:22:05.716Z,54.12
2022-08-17T08:24:50.204Z,52.02
2022-08-17T08:27:29.077Z,52.38
2022-08-17T08:30:07.017Z,50.95
2022-08-17T08:32:50.375Z,50.85
2022-08-17T08:35:30.968Z,50.34
2022-08-17T08:38:08.362Z,49.19
2022-08-17T08:41:04.142Z,50.27
2022-08-17T08:43:41.496Z,50.12
2022-08-17T08:46:19.819Z,49.80
2022-08-17T08:49:38.994Z,48.86
2022-08-17T08:52:21.719Z,47.82
2022-08-17T08:54:59.371Z,47.72
2022-08-17T08:57:34.514Z,48.20
2022-08-17T09:00:15.165Z,47.09
2022-08-17T09:03:16.278Z,46.47
2022-08-17T09:06:33.296Z,46.65
2022-08-17T09:09:09.177Z,45.91
2022-08-17T09:12:01.140Z,45.94
2022-08-17T09:14:46.812Z,46.15
2022-08-17T09:17:20.247Z,44.14
2022-08-17T09:19:55.853Z,44.18
2022-08-17T09:22:33.908Z,44.34
2022-08-17T09:25:09.976Z,45.08
2022-08-17T09:27:49.058Z,45.00
2022-08-17T09:30:18.336Z,44.97
2022-08-17T09:32:50.017Z,44.38
2022-08-17T09:35:22.824Z,44.14
2022-08-17T09:37:59.505Z,42.87
2022-08-17T09:40:35.026Z,43.42
2022-08-17T09:43:09.054Z,42.52
2022-08-17T09:45:43.629Z,42.87
2022-08-17T09:48:18.888Z,43.12
2022-08-17T09:51:05.423Z,42.66
2022-08-17T09:53:36.992Z,43.21
2022-08-17T09:56:21.829Z,42.87
2022-08-17T09:59:04.475Z,42.28
2022-08-17T10:01:39.930Z,42.46
2022-08-17T10:04:29.328Z,42.86
2022-08-17T10:07:03.025Z,42.69
2022-08-17T10:09:44.309Z,42.13
2022-08-17T10:12:29.848Z,43.12
2022-08-17T10:15:13.918Z,42.39
2022-08-17T10:17:55.516Z,41.49
2022-08-17T10:20:29.553Z,42.62
2022-08-17T10:23:19.865Z,42.64
2022-08-17T10:26:20.421Z,41.65
2022-08-17T10:28:54.503Z,41.49
2022-08-17T10:31:34.719Z,41.18
2022-08-17T10:34:26.027Z,41.78
2022-08-17T10:37:05.782Z,41.74
2022-08-17T10:39:51.822Z,42.01
2022-08-17T10:42:30.834Z,41.45
2022-08-17T10:45:07.760Z,41.68
2022-08-17T10:48:04.739Z,42.29
2022-08-17T10:51:08.704Z,42.70
2022-08-17T10:54:01.731Z,41.47
2022-08-17T10:56:47.016Z,42.04
2022-08-17T10:59:50.705Z,42.07
2022-08-17T11:02:26.216Z,40.54
2022-08-17T11:05:20.661Z,40.55
2022-08-17T11:08:23.458Z,39.91
2022-08-17T11:11:07.763Z,39.44
2022-08-17T11:13:45.888Z,39.05
2022-08-17T11:16:45.612Z,38.70
2022-08-17T11:19:46.964Z,38.45
2022-08-17T11:22:36.019Z,37.76
2022-08-17T11:25:26.300Z,37.52
2022-08-17T11:28:07.747Z,37.51
2022-08-17T11:30:47.050Z,37.37
2022-08-17T11:33:54.256Z,37.86
2022-08-17T11:36:38.068Z,37.56
2022-08-17T11:39:23.780Z,37.82
2022-08-17T11:42:02.443Z,37.71
2022-08-17T11:44:40.264Z,37.05
2022-08-17T11:47:35.365Z,36.46
2022-08-17T11:51:02.730Z,38.07
2022-08-17T11:54:30.508Z,38.47
2022-08-17T11:56:51.952Z,39.67
2022-08-17T11:59:58.723Z,40.35
2022-08-17T12:02:48.538Z,41.44
2022-08-17T12:05:32.325Z,41.40
2022-08-17T12:08:11.959Z,41.17
2022-08-17T12:10:54.874Z,40.94
2022-08-17T12:13:30.591Z,41.75
2022-08-17T12:16:07.372Z,42.95
2022-08-17T12:18:39.454Z,43.15
2022-08-17T12:21:23.247Z,42.90
2022-08-17T12:23:58.325Z,43.51
2022-08-17T12:26:31.269Z,44.21
2022-08-17T12:29:02.205Z,45.10
2022-08-17T12:31:36.049Z,44.99
2022-08-17T12:34:05.654Z,45.38
2022-08-17T12:36:34.688Z,45.52
2022-08-17T12:39:13.074Z,46.33
2022-08-17T12:41:47.223Z,45.73
2022-08-17T12:44:17.687Z,45.14
2022-08-17T12:47:00.395Z,44.67
2022-08-17T12:49:32.623Z,44.83
2022-08-17T12:52:10.204Z,46.75
2022-08-17T12:54:46.693Z,47.54
2022-08-17T12:57:20.313Z,49.24
2022-08-17T12:59:52.127Z,49.59
2022-08-17T13:02:30.915Z,50.07
2022-08-17T13:05:02.123Z,49.85
2022-08-17T13:07:34.071Z,49.90
2022-08-17T13:10:02.495Z,49.84
2022-08-17T13:12:34.501Z,50.87
2022-08-17T13:15:02.852Z,50.47
2022-08-17T13:17:34.642Z,51.18
2022-08-17T13:20:04.688Z,51.22
2022-08-17T13:22:33.653Z,50.57
2022-08-17T13:25:05.549Z,50.92
2022-08-17T13:27:35.093Z,50.89
2022-08-17T13:30:08.734Z,51.06
2022-08-17T13:32:44.130Z,50.98
2022-08-17T13:35:39.242Z,51.31
2022-08-17T13:38:10.104Z,51.34
2022-08-17T13:40:42.675Z,51.45
2022-08-17T13:43:13.013Z,51.90
2022-08-17T13:46:08.152Z,51.96
2022-08-17T13:48:36.691Z,51.24
2022-08-17T13:51:15.493Z,52.34
2022-08-17T13:54:07.148Z,56.01
2022-08-17T13:56:41.596Z,57.86
2022-08-17T13:59:15.743Z,56.63
2022-08-17T14:01:51.116Z,55.13
2022-08-17T14:04:23.683Z,54.48
2022-08-17T14:06:55.201Z,53.71
2022-08-17T14:09:25.367Z,53.54
2022-08-17T14:11:54.014Z,53.00
2022-08-17T14:14:24.151Z,52.38
2022-08-17T14:16:52.183Z,51.87
2022-08-17T14:19:22.066Z,51.65
2022-08-17T14:21:51.327Z,50.90
2022-08-17T14:24:24.268Z,50.32
2022-08-17T14:26:53.422Z,50.91
2022-08-17T14:29:23.674Z,50.34
2022-08-17T14:31:54.149Z,50.49
2022-08-17T14:34:23.329Z,50.17
2022-08-17T14:36:52.728Z,50.28
2022-08-17T14:39:21.279Z,49.87
2022-08-17T14:41:49.722Z,50.33
2022-08-17T14:44:17.862Z,50.21
2022-08-17T14:46:47.977Z,49.89
2022-08-17T14:49:16.311Z,49.60
2022-08-17T14:51:44.714Z,48.89
2022-08-17T14:54:13.130Z,48.93
2022-08-17T14:57:23.110Z,47.68
2022-08-17T14:59:51.766Z,46.99
2022-08-17T15:02:29.767Z,47.06
2022-08-17T15:05:03.101Z,47.86
2022-08-17T15:07:31.739Z,47.27
2022-08-17T15:10:01.515Z,47.93
2022-08-17T15:12:33.110Z,47.33
2022-08-17T15:15:01.984Z,46.77
2022-08-17T15:17:44.332Z,46.17
2022-08-17T15:20:16.416Z,46.54
2022-08-17T15:22:45.761Z,45.90
2022-08-17T15:25:14.262Z,45.00
2022-08-17T15:27:42.260Z,44.72
2022-08-17T15:30:11.742Z,44.65
2022-08-17T15:32:45.866Z,44.70
2022-08-17T15:35:27.584Z,45.08
2022-08-17T15:37:58.456Z,45.22
2022-08-17T15:40:26.855Z,44.53
2022-08-17T15:42:55.117Z,44.67
2022-08-17T15:45:26.573Z,44.45
2022-08-17T15:47:55.968Z,45.46
2022-08-17T15:50:23.963Z,45.26
2022-08-17T15:53:00.009Z,44.94
2022-08-17T15:55:29.952Z,45.25
2022-08-17T15:57:57.738Z,44.98
2022-08-17T16:00:26.059Z,44.92
2022-08-17T16:03:44.715Z,44.94
2022-08-17T16:05:46.402Z,45.11
2022-08-17T16:08:20.666Z,44.95
2022-08-17T16:10:48.754Z,45.54
2022-08-17T16:13:18.080Z,45.81
2022-08-17T16:15:52.553Z,45.90
2022-08-17T16:18:31.086Z,45.94
2022-08-17T16:21:21.536Z,45.69
2022-08-17T16:23:51.467Z,46.20
2022-08-17T16:26:19.811Z,46.10
2022-08-17T16:28:47.665Z,46.04
2022-08-17T16:31:15.982Z,46.02
2022-08-17T16:34:03.784Z,45.80
2022-08-17T16:36:33.210Z,46.35
2022-08-17T16:39:01.474Z,46.37
2022-08-17T16:41:45.111Z,46.59
2022-08-17T16:44:15.355Z,46.24
2022-08-17T16:46:45.421Z,46.08
2022-08-17T16:49:35.447Z,46.07
2022-08-17T16:52:07.436Z,45.74
2022-08-17T16:54:36.239Z,46.34
2022-08-17T16:57:05.587Z,46.09
2022-08-17T16:59:42.120Z,45.94
2022-08-17T17:02:15.355Z,45.90
2022-08-17T17:04:47.490Z,45.86
2022-08-17T17:07:34.919Z,46.01
2022-08-17T17:10:08.643Z,45.52
2022-08-17T17:13:03.943Z,46.09
2022-08-17T17:15:34.813Z,46.31
2022-08-17T17:18:06.982Z,45.96
2022-08-17T17:20:45.837Z,46.29
2022-08-17T17:23:26.071Z,46.94
2022-08-17T17:26:04.036Z,47.17
2022-08-17T17:28:43.321Z,47.13
2022-08-17T17:31:16.950Z,47.17
2022-08-17T17:33:48.276Z,47.43
2022-08-17T17:36:26.065Z,47.85
2022-08-17T17:38:59.235Z,48.27
2022-08-17T17:41:34.046Z,48.82
2022-08-17T17:44:07.515Z,49.38
2022-08-17T17:46:39.799Z,49.55
2022-08-17T17:49:10.135Z,49.48
2022-08-17T17:52:06.258Z,49.71
2022-08-17T17:54:57.795Z,50.14
2022-08-17T17:57:36.218Z,50.58
2022-08-17T18:00:10.041Z,51.56
2022-08-17T18:02:52.577Z,52.62
2022-08-17T18:05:34.206Z,53.09
2022-08-17T18:08:15.593Z,53.29
2022-08-17T18:10:51.202Z,53.47
2022-08-17T18:13:29.056Z,53.71
2022-08-17T18:16:00.733Z,53.80
2022-08-17T18:18:38.596Z,54.17
2022-08-17T18:21:15.786Z,54.01
2022-08-17T18:23:54.573Z,54.81
2022-08-17T18:26:45.000Z,54.63
2022-08-17T18:29:25.479Z,55.02
2022-08-17T18:32:23.706Z,54.32
2022-08-17T18:34:54.258Z,55.13
2022-08-17T18:37:33.742Z,55.28
2022-08-17T18:40:24.665Z,55.73
2022-08-17T18:43:02.785Z,56.12
2022-08-17T18:45:41.927Z,56.19
2022-08-17T18:48:30.777Z,56.69
2022-08-17T18:51:05.016Z,56.86
2022-08-17T18:53:38.078Z,57.51
2022-08-17T18:56:25.863Z,57.58
2022-08-17T18:59:04.436Z,57.60
2022-08-17T19:01:52.688Z,58.57
2022-08-17T19:04:35.403Z,60.34
2022-08-17T19:07:24.362Z,60.56
2022-08-17T19:09:58.099Z,59.54
2022-08-17T19:12:32.363Z,61.94
2022-08-17T19:15:01.698Z,61.40
2022-08-17T19:17:38.610Z,61.30
2022-08-17T19:20:13.911Z,61.82
2022-08-17T19:23:01.565Z,62.05
2022-08-17T19:25:34.862Z,62.13
2022-08-17T19:28:12.697Z,61.47
2022-08-17T19:30:51.172Z,61.96
2022-08-17T19:33:19.454Z,62.27
2022-08-17T19:36:06.263Z,61.96
2022-08-17T19:38:48.517Z,64.04
2022-08-17T19:41:22.904Z,63.77
2022-08-17T19:44:06.672Z,63.05
2022-08-17T19:46:48.659Z,63.40
2022-08-17T19:49:33.258Z,63.68
2022-08-17T19:52:20.416Z,65.27
2022-08-17T19:54:57.485Z,65.95
2022-08-17T19:57:35.124Z,65.39
2022-08-17T20:00:10.771Z,65.73
2022-08-17T20:02:47.705Z,65.41
2022-08-17T20:05:20.988Z,65.73
2022-08-17T20:07:55.295Z,65.17
2022-08-17T20:10:31.518Z,65.11
2022-08-17T20:13:09.173Z,65.32
2022-08-17T20:15:42.495Z,65.17
2022-08-17T20:18:19.031Z,65.37
2022-08-17T20:20:54.898Z,65.76
2022-08-17T20:23:32.421Z,66.01
2022-08-17T20:26:10.603Z,66.79
2022-08-17T20:28:40.301Z,66.54
2022-08-17T20:31:44.685Z,66.47
2022-08-17T20:34:36.771Z,67.17
2022-08-17T20:37:08.811Z,67.98
2022-08-17T20:39:40.026Z,68.99
2022-08-17T20:42:13.191Z,70.57
2022-08-17T20:44:44.521Z,69.54
2022-08-17T20:47:22.761Z,69.80
2022-08-17T20:49:58.260Z,68.49
2022-08-17T20:52:53.861Z,69.25
2022-08-17T20:55:55.877Z,70.49
2022-08-17T20:58:53.817Z,69.53
2022-08-17T21:01:37.305Z,69.48
2022-08-17T21:04:29.523Z,70.00
2022-08-17T21:07:29.019Z,69.55
2022-08-17T21:10:11.298Z,69.90
2022-08-17T21:12:42.486Z,69.47
2022-08-17T21:15:28.480Z,70.08
2022-08-17T21:18:07.493Z,70.23
2022-08-17T21:20:43.180Z,70.61
2022-08-17T21:23:42.245Z,70.57
2022-08-17T21:26:18.639Z,70.82
2022-08-17T21:29:29.683Z,71.12
2022-08-17T21:32:10.707Z,70.73
2022-08-17T21:34:42.419Z,70.25
2022-08-17T21:37:31.477Z,70.00
2022-08-17T21:40:21.381Z,70.27
2022-08-17T21:42:52.718Z,70.43
2022-08-17T21:45:23.695Z,70.85
2022-08-17T21:48:07.734Z,72.48
2022-08-17T21:50:37.095Z,71.98
2022-08-17T21:53:08.747Z,71.41
2022-08-17T21:55:37.565Z,71.32
2022-08-17T21:58:13.790Z,71.59
2022-08-17T22:00:44.230Z,72.20
2022-08-17T22:03:25.857Z,72.12
2022-08-17T22:05:54.012Z,72.42
2022-08-17T22:08:25.485Z,72.70
2022-08-17T22:11:02.078Z,72.91
2022-08-17T22:13:30.221Z,72.56
2022-08-17T22:16:15.701Z,71.88
2022-08-17T22:18:58.028Z,70.82
2022-08-17T22:21:26.128Z,70.96
2022-08-17T22:24:07.704Z,71.67
2022-08-17T22:27:00.236Z,72.22
2022-08-17T22:29:57.287Z,72.42
2022-08-17T22:32:44.735Z,71.16
2022-08-17T22:35:35.505Z,70.97
2022-08-17T22:38:32.333Z,71.13
2022-08-17T22:41:27.027Z,71.08
2022-08-17T22:43:57.376Z,71.45
2022-08-17T22:46:26.649Z,71.90
2022-08-17T22:48:57.907Z,72.22
2022-08-17T22:51:30.703Z,72.10
2022-08-17T22:54:19.445Z,71.50
2022-08-17T22:57:15.538Z,71.67
2022-08-17T22:59:50.368Z,71.50
2022-08-17T23:02:25.824Z,71.87
2022-08-17T23:04:57.484Z,71.99
2022-08-17T23:07:25.697Z,72.45
2022-08-17T23:09:54.847Z,73.16
2022-08-17T23:12:27.515Z,72.72
2022-08-17T23:15:01.633Z,72.70
2022-08-17T23:17:37.201Z,73.39
2022-08-17T23:20:08.261Z,73.47
2022-08-17T23:22:37.094Z,72.34
2022-08-17T23:25:06.416Z,72.46
2022-08-17T23:27:36.790Z,73.04
2022-08-17T23:30:05.167Z,73.20
2022-08-17T23:32:36.647Z,73.23
2022-08-17T23:35:16.435Z,73.61
2022-08-17T23:37:44.829Z,73.51
2022-08-17T23:40:13.139Z,74.05
2022-08-17T23:42:46.152Z,74.31
2022-08-17T23:45:14.338Z,74.14
2022-08-17T23:47:42.399Z,74.45
2022-08-17T23:50:11.129Z,73.96
2022-08-17T23:52:41.222Z,74.63
2022-08-17T23:55:10.399Z,74.93
2022-08-17T23:57:38.911Z,74.75
